Tacoma Narrows Airport
KTIW : rendu visible

Aérodrome :











RETROUVEZ-NOUS SUR...

 
LOGIN :

S'inscrire | Disclaimer

   EN    FR    IT 

 









Légende :    VFR   VFR Marginal   IFR   IFR Intensif   IFR Très Intensif
Visi : 
Plafond : 
>= 8 km
>= 3000ft
5 à 8 km
1000 à 3000 ft
1500m à 5 km
500 à 1000 ft
800 à 1500m
200 à 500 ft
< 800m
< 200 ft
Symboles :   Orages  Brouillard  Fortes neiges  Fortes précipitations  Vent > 20 kt






- Altitude de l'aérodrome : 294 ft


KTIW - Tacoma Narrows

DERNIER METAR :
  • 301423Z AUTO 25006KT 10SM VCTS FEW100 11/08 A2983 RMK AO2 LTG DSNT SW T01110083

METARs EXPIRÉS :
  • 301353Z AUTO 29004KT 10SM CLR 11/08 A2982 RMK AO2 LTG DSNT SW SLP098 T01110083
  • 301253Z AUTO 00000KT 10SM FEW100 11/08 A2983 RMK AO2 SLP099 T01110083
  • 301153Z AUTO 00000KT 10SM CLR 11/08 A2983 RMK AO2 PRESRR SLP101 T01110083 10144 20111 53001

TAF N/A
FIR KZSE / Amérique du Nord



MET'MAP, la Météo Aéronautique d'un coup d'oeil ! - Copyright ORBIFLY Décembre 2007 - Disclaimer

ORBIFLY MET'MAP TEAM :

Programmation & Développement : Alexandra Zaïnal
Sur une idée originale de : Baudouin d'Aumeries
Assistance à la programmation : Marc-Olivier Méhu
Soutien technique & logistique : Manuel Goepfert

Contact : metmap@orbifly.com




SOURCES & CREDITS :

   NOAA       Earth
Advisory